Time;durP1;ratioP1;P1;durP2;ratioP2;P2;SDS_P1;SDS_P2;PMS_P1;PMS_P2;Temp;Humidity;BMP_temperature;BMP_pressure;BME280_temperature;BME280_humidity;BME280_pressure;Samples;Min_cycle;Max_cycle;Signal;HPM_P1;HPM_P2
2024/03/17 00:01:31;;;;;;;;;;;4.00;99.90;;;;;;5032445;28;19913;-55
2024/03/17 00:03:56;;;;;;;;;;;4.00;99.90;;;;;;5046409;28;19967;-56
2024/03/17 00:06:22;;;;;;;;;;;3.80;99.90;;;;;;5042839;28;19913;-54
2024/03/17 00:08:47;;;;;;;;;;;3.80;99.90;;;;;;5030961;28;19917;-53
2024/03/17 00:11:13;;;;;;;;;;;3.70;99.90;;;;;;5031979;28;19919;-58
2024/03/17 00:13:38;;;;;;;;;;;3.80;99.90;;;;;;5040694;28;20373;-57
2024/03/17 00:16:04;;;;;;;;;;;3.90;99.90;;;;;;5031994;28;19909;-54
2024/03/17 00:18:30;;;;;;;;;;;3.80;99.90;;;;;;5031509;28;20308;-55
2024/03/17 00:20:55;;;;;;;;;;;3.80;99.90;;;;;;5032211;28;19916;-53
2024/03/17 00:23:22;;;;;;;;;;;3.80;99.90;;;;;;5032063;28;19958;-55
2024/03/17 00:25:47;;;;;;;;;;;3.70;99.90;;;;;;5036276;28;19911;-56
2024/03/17 00:28:12;;;;;;;;;;;3.70;99.90;;;;;;5042918;28;19917;-57
2024/03/17 00:30:38;;;;;;;;;;;3.70;99.90;;;;;;5035041;28;20384;-56
2024/03/17 00:33:03;;;;;;;;;;;3.80;99.90;;;;;;5036894;28;20004;-56
2024/03/17 00:35:30;;;;;;;;;;;3.70;99.90;;;;;;5031787;28;19909;-54
2024/03/17 00:37:55;;;;;;;;;;;3.70;99.90;;;;;;5031343;28;19909;-54
2024/03/17 00:40:21;;;;;;;;;;;3.60;99.90;;;;;;5039512;28;19935;-54
2024/03/17 00:42:47;;;;;;;;;;;3.50;99.90;;;;;;5031731;28;19909;-58
2024/03/17 00:45:12;;;;;;;;;;;3.40;99.90;;;;;;5031538;28;19917;-54
2024/03/17 00:47:38;;;;;;;;;;;3.20;99.90;;;;;;5034560;28;20353;-55
2024/03/17 00:50:06;;;;;;;;;;;3.10;99.90;;;;;;5036188;28;19909;-53
2024/03/17 00:52:31;;;;;;;;;;;3.10;99.90;;;;;;5031397;28;19994;-57
2024/03/17 00:54:57;;;;;;;;;;;3.00;99.90;;;;;;5045391;28;19978;-57
2024/03/17 00:57:22;;;;;;;;;;;3.10;99.90;;;;;;5034581;28;19919;-54
2024/03/17 00:59:48;;;;;;;;;;;3.10;99.90;;;;;;5046405;28;20341;-57
2024/03/17 01:02:16;;;;;;;;;;;3.10;99.90;;;;;;5031486;28;19908;-57
2024/03/17 01:04:42;;;;;;;;;;;3.00;99.90;;;;;;5039595;28;19909;-54
2024/03/17 01:07:07;;;;;;;;;;;2.80;99.90;;;;;;5030644;28;19955;-53
2024/03/17 01:09:33;;;;;;;;;;;2.70;99.90;;;;;;5030439;28;20008;-53
2024/03/17 01:11:58;;;;;;;;;;;2.80;99.90;;;;;;5031234;28;19948;-54
2024/03/17 01:14:24;;;;;;;;;;;2.80;99.90;;;;;;5030948;28;19982;-57
2024/03/17 01:16:52;;;;;;;;;;;2.70;99.90;;;;;;5030991;28;19916;-56
2024/03/17 01:19:17;;;;;;;;;;;2.70;99.90;;;;;;5046652;28;19959;-57
2024/03/17 01:21:43;;;;;;;;;;;2.70;99.90;;;;;;5034397;28;19951;-58
2024/03/17 01:24:08;;;;;;;;;;;2.60;99.90;;;;;;5035553;28;20258;-55
2024/03/17 01:26:34;;;;;;;;;;;2.50;99.90;;;;;;5030171;28;20008;-57
2024/03/17 01:28:59;;;;;;;;;;;2.30;99.90;;;;;;5044844;28;19955;-59
2024/03/17 01:31:25;;;;;;;;;;;2.20;99.90;;;;;;5041521;28;19924;-57
2024/03/17 01:33:50;;;;;;;;;;;2.20;99.90;;;;;;5043530;28;19972;-58
2024/03/17 01:36:16;;;;;;;;;;;2.00;99.90;;;;;;5042474;28;19937;-57
2024/03/17 01:38:41;;;;;;;;;;;2.00;99.90;;;;;;5038217;28;20077;-56
2024/03/17 01:41:07;;;;;;;;;;;2.10;99.90;;;;;;5038567;28;19912;-56
2024/03/17 01:43:32;;;;;;;;;;;2.10;99.90;;;;;;5030441;28;20041;-56
2024/03/17 01:45:58;;;;;;;;;;;2.10;99.90;;;;;;5044720;28;20311;-54
2024/03/17 01:48:25;;;;;;;;;;;2.10;99.90;;;;;;5031871;28;20029;-56
2024/03/17 01:50:51;;;;;;;;;;;2.00;99.90;;;;;;5030398;28;20137;-53
2024/03/17 01:53:17;;;;;;;;;;;1.90;99.90;;;;;;5030417;28;20008;-59
2024/03/17 01:55:43;;;;;;;;;;;2.00;99.90;;;;;;5038005;28;20038;-55
2024/03/17 01:58:10;;;;;;;;;;;2.00;99.90;;;;;;5029965;28;19941;-55
2024/03/17 02:00:36;;;;;;;;;;;1.90;99.90;;;;;;5038734;28;19926;-54
2024/03/17 02:03:06;;;;;;;;;;;1.90;99.90;;;;;;5038532;28;19921;-57
2024/03/17 02:05:31;;;;;;;;;;;1.80;99.90;;;;;;5038075;28;19952;-54
2024/03/17 02:07:57;;;;;;;;;;;1.80;99.90;;;;;;5029619;28;19909;-56
2024/03/17 02:10:23;;;;;;;;;;;1.80;99.90;;;;;;5038222;28;19969;-56
2024/03/17 02:12:48;;;;;;;;;;;1.70;99.90;;;;;;5038327;28;20413;-55
2024/03/17 02:15:14;;;;;;;;;;;1.70;99.90;;;;;;5030250;28;19920;-56
2024/03/17 02:17:39;;;;;;;;;;;1.70;99.90;;;;;;5029932;28;20454;-58
2024/03/17 02:20:07;;;;;;;;;;;1.60;99.90;;;;;;5029707;28;19939;-57
2024/03/17 02:22:36;;;;;;;;;;;1.60;99.90;;;;;;5031844;28;20430;-53
2024/03/17 02:25:02;;;;;;;;;;;1.40;99.90;;;;;;5041488;28;19935;-58
2024/03/17 02:27:27;;;;;;;;;;;1.30;99.90;;;;;;5039995;28;19952;-58
2024/03/17 02:29:53;;;;;;;;;;;1.30;99.90;;;;;;5037499;28;20469;-58
2024/03/17 02:32:22;;;;;;;;;;;1.30;99.90;;;;;;5038514;28;20194;-56
2024/03/17 02:34:47;;;;;;;;;;;1.30;99.90;;;;;;5049673;28;19943;-58
2024/03/17 02:37:13;;;;;;;;;;;1.30;99.90;;;;;;5033638;28;19919;-57
2024/03/17 02:39:38;;;;;;;;;;;1.30;99.90;;;;;;5041308;28;19964;-54
2024/03/17 02:42:05;;;;;;;;;;;1.20;99.90;;;;;;5033774;28;19921;-57
2024/03/17 02:44:31;;;;;;;;;;;1.30;99.90;;;;;;5033455;28;19959;-56
2024/03/17 02:46:57;;;;;;;;;;;1.30;99.90;;;;;;5033723;28;19978;-54
2024/03/17 02:49:23;;;;;;;;;;;1.30;99.90;;;;;;5041692;28;19982;-53
2024/03/17 02:51:49;;;;;;;;;;;1.40;99.90;;;;;;5020023;28;20352;-54
2024/03/17 02:54:14;;;;;;;;;;;1.40;99.90;;;;;;5037640;28;19942;-55
2024/03/17 02:56:40;;;;;;;;;;;1.50;99.90;;;;;;5044492;28;19942;-56
2024/03/17 02:59:06;;;;;;;;;;;1.40;99.90;;;;;;5038161;28;19916;-55
2024/03/17 03:01:32;;;;;;;;;;;1.40;99.90;;;;;;5035203;28;19934;-56
2024/03/17 03:03:57;;;;;;;;;;;1.30;99.90;;;;;;5039945;28;19960;-54
2024/03/17 03:06:22;;;;;;;;;;;1.30;99.90;;;;;;5041999;28;20355;-53
2024/03/17 03:08:50;;;;;;;;;;;1.30;99.90;;;;;;5040432;28;19943;-57
2024/03/17 03:11:16;;;;;;;;;;;1.30;99.90;;;;;;5033254;28;20295;-55
2024/03/17 03:13:42;;;;;;;;;;;1.30;99.90;;;;;;5041244;28;19929;-55
2024/03/17 03:16:09;;;;;;;;;;;1.30;99.90;;;;;;5033070;28;20514;-58
2024/03/17 03:18:35;;;;;;;;;;;1.20;99.90;;;;;;5040469;28;20348;-57
2024/03/17 03:21:00;;;;;;;;;;;1.20;99.90;;;;;;5033038;28;19925;-54
2024/03/17 03:23:27;;;;;;;;;;;1.10;99.90;;;;;;5041186;28;19933;-55
2024/03/17 03:25:59;;;;;;;;;;;1.00;99.90;;;;;;5037651;28;20311;-57
2024/03/17 03:28:25;;;;;;;;;;;1.00;99.90;;;;;;5043937;28;19944;-57
2024/03/17 03:30:51;;;;;;;;;;;1.00;99.90;;;;;;5048501;28;19940;-59
2024/03/17 03:33:17;;;;;;;;;;;1.00;99.90;;;;;;5040836;28;19924;-57
2024/03/17 03:35:43;;;;;;;;;;;1.00;99.90;;;;;;5032393;28;19944;-53
2024/03/17 03:38:08;;;;;;;;;;;1.00;99.90;;;;;;5032263;28;19917;-57
2024/03/17 03:40:34;;;;;;;;;;;0.90;99.90;;;;;;5040642;28;19925;-57
2024/03/17 03:42:59;;;;;;;;;;;0.90;99.90;;;;;;5032607;28;19931;-56
2024/03/17 03:45:25;;;;;;;;;;;0.90;99.90;;;;;;5040490;28;20341;-53
2024/03/17 03:47:51;;;;;;;;;;;0.90;99.90;;;;;;5032442;28;20368;-57
2024/03/17 03:50:17;;;;;;;;;;;0.80;99.90;;;;;;5039951;28;19956;-55
2024/03/17 03:52:42;;;;;;;;;;;0.80;99.90;;;;;;5032783;28;20131;-56
2024/03/17 03:55:14;;;;;;;;;;;0.70;99.90;;;;;;5047284;28;19944;-53
2024/03/17 03:57:40;;;;;;;;;;;0.80;99.90;;;;;;5035631;28;19927;-56
2024/03/17 04:00:12;;;;;;;;;;;0.90;99.90;;;;;;5043630;28;19947;-58
2024/03/17 04:02:38;;;;;;;;;;;0.90;99.90;;;;;;5043697;28;19934;-55
2024/03/17 04:05:03;;;;;;;;;;;0.90;99.90;;;;;;5037641;28;20318;-57
2024/03/17 04:07:29;;;;;;;;;;;0.90;99.90;;;;;;5041627;28;19926;-57
2024/03/17 04:09:54;;;;;;;;;;;0.90;99.90;;;;;;5043170;28;20061;-57
2024/03/17 04:12:20;;;;;;;;;;;0.80;99.90;;;;;;5043509;28;20375;-56
2024/03/17 04:14:46;;;;;;;;;;;0.80;99.90;;;;;;5032417;28;19990;-55
2024/03/17 04:17:12;;;;;;;;;;;0.80;99.90;;;;;;5040033;28;19927;-54
2024/03/17 04:19:37;;;;;;;;;;;0.80;99.90;;;;;;5031265;28;19934;-56
2024/03/17 04:22:03;;;;;;;;;;;0.70;99.90;;;;;;5040232;28;19927;-57
2024/03/17 04:24:28;;;;;;;;;;;0.80;99.90;;;;;;5031690;28;19952;-57
2024/03/17 04:26:54;;;;;;;;;;;0.70;99.90;;;;;;5031818;28;19931;-57
2024/03/17 04:29:20;;;;;;;;;;;0.60;99.90;;;;;;5031065;28;19947;-59
2024/03/17 04:31:48;;;;;;;;;;;0.60;99.90;;;;;;5040003;28;19933;-59
2024/03/17 04:34:14;;;;;;;;;;;0.40;99.90;;;;;;5031939;28;19983;-57
2024/03/17 04:36:39;;;;;;;;;;;0.50;99.90;;;;;;5031516;28;19929;-56
2024/03/17 04:39:08;;;;;;;;;;;0.50;99.90;;;;;;5031317;28;20286;-57
2024/03/17 04:41:33;;;;;;;;;;;0.50;99.90;;;;;;5031591;28;19925;-58
2024/03/17 04:43:59;;;;;;;;;;;0.40;99.90;;;;;;5031636;28;20463;-57
2024/03/17 04:46:26;;;;;;;;;;;0.40;99.90;;;;;;5031394;28;19929;-56
2024/03/17 04:48:51;;;;;;;;;;;0.50;99.90;;;;;;5030845;28;20589;-57
2024/03/17 04:51:17;;;;;;;;;;;0.50;99.90;;;;;;5031721;28;19930;-56
2024/03/17 04:53:43;;;;;;;;;;;0.50;99.90;;;;;;5031449;28;19921;-57
2024/03/17 04:56:08;;;;;;;;;;;0.40;99.90;;;;;;5030593;28;19946;-58
2024/03/17 04:58:34;;;;;;;;;;;0.40;99.90;;;;;;5030611;28;19987;-58
2024/03/17 05:01:07;;;;;;;;;;;0.40;99.90;;;;;;5031198;28;20294;-57
2024/03/17 05:03:33;;;;;;;;;;;0.30;99.90;;;;;;5031030;28;20007;-56
2024/03/17 05:06:02;;;;;;;;;;;0.40;99.90;;;;;;5031271;28;19941;-56
2024/03/17 05:08:27;;;;;;;;;;;0.40;99.90;;;;;;5030261;28;20035;-55
2024/03/17 05:10:59;;;;;;;;;;;0.40;99.90;;;;;;5039092;28;20011;-58
2024/03/17 05:13:27;;;;;;;;;;;0.50;99.90;;;;;;5039172;28;19920;-57
2024/03/17 05:15:53;;;;;;;;;;;0.40;99.90;;;;;;5030698;28;19941;-58
2024/03/17 05:18:20;;;;;;;;;;;0.30;99.90;;;;;;5046687;28;19931;-56
2024/03/17 05:20:47;;;;;;;;;;;0.40;99.90;;;;;;5031033;28;20272;-57
2024/03/17 05:23:13;;;;;;;;;;;0.30;99.90;;;;;;5030655;28;20350;-57
2024/03/17 05:25:39;;;;;;;;;;;0.40;99.90;;;;;;5030272;28;20002;-55
2024/03/17 05:28:04;;;;;;;;;;;0.40;99.90;;;;;;5038170;28;19967;-57
2024/03/17 05:30:30;;;;;;;;;;;0.50;99.90;;;;;;5030599;28;19926;-56
2024/03/17 05:32:56;;;;;;;;;;;0.50;99.90;;;;;;5030946;28;19927;-53
2024/03/17 05:35:21;;;;;;;;;;;0.50;99.90;;;;;;5030284;28;19950;-54
2024/03/17 05:37:48;;;;;;;;;;;0.50;99.90;;;;;;5030479;28;19927;-58
2024/03/17 05:40:14;;;;;;;;;;;0.50;99.90;;;;;;5029894;28;20375;-55
2024/03/17 05:42:45;;;;;;;;;;;0.60;99.90;;;;;;5039504;28;19927;-56
2024/03/17 05:45:11;;;;;;;;;;;0.50;99.90;;;;;;5036139;28;20022;-57
2024/03/17 05:47:41;;;;;;;;;;;0.60;99.90;;;;;;5039140;28;20406;-58
2024/03/17 05:50:06;;;;;;;;;;;0.60;99.90;;;;;;5037554;28;20047;-56
2024/03/17 05:52:32;;;;;;;;;;;0.60;99.90;;;;;;5037728;28;19972;-57
2024/03/17 05:54:57;;;;;;;;;;;0.60;99.90;;;;;;5030983;28;19974;-58
2024/03/17 05:57:24;;;;;;;;;;;0.70;99.90;;;;;;5029150;28;19952;-60
2024/03/17 05:59:49;;;;;;;;;;;0.80;99.90;;;;;;5029327;28;19959;-59
2024/03/17 06:02:15;;;;;;;;;;;0.90;99.90;;;;;;5037047;28;20465;-58
2024/03/17 06:04:41;;;;;;;;;;;0.90;99.90;;;;;;5038204;28;19949;-58
2024/03/17 06:07:06;;;;;;;;;;;0.90;99.90;;;;;;5028146;28;19956;-58
2024/03/17 06:09:32;;;;;;;;;;;1.00;99.90;;;;;;5028775;28;20350;-56
2024/03/17 06:11:57;;;;;;;;;;;1.20;99.90;;;;;;5029305;28;19928;-58
2024/03/17 06:14:23;;;;;;;;;;;1.30;99.90;;;;;;5029325;28;19958;-57
2024/03/17 06:16:48;;;;;;;;;;;1.40;99.90;;;;;;5029250;28;20027;-57
2024/03/17 06:19:14;;;;;;;;;;;1.50;99.90;;;;;;5028855;28;19921;-57
2024/03/17 06:21:40;;;;;;;;;;;1.80;99.90;;;;;;5029197;28;19937;-57
2024/03/17 06:24:09;;;;;;;;;;;1.70;99.90;;;;;;5029269;28;19951;-59
2024/03/17 06:26:35;;;;;;;;;;;1.70;99.90;;;;;;5045099;28;20375;-58
2024/03/17 06:29:01;;;;;;;;;;;1.60;99.90;;;;;;5029003;28;19994;-56
2024/03/17 06:31:26;;;;;;;;;;;1.80;99.90;;;;;;5029264;28;19932;-58
2024/03/17 06:33:52;;;;;;;;;;;1.90;99.90;;;;;;5033617;28;20464;-55
2024/03/17 06:36:17;;;;;;;;;;;2.00;99.90;;;;;;5041210;28;19947;-58
2024/03/17 06:38:43;;;;;;;;;;;2.20;99.90;;;;;;5037053;28;19928;-55
2024/03/17 06:41:12;;;;;;;;;;;2.20;99.90;;;;;;5037125;28;20004;-56
2024/03/17 06:43:39;;;;;;;;;;;2.20;99.90;;;;;;5029064;28;19932;-57
2024/03/17 06:46:05;;;;;;;;;;;2.40;99.90;;;;;;5028911;28;20479;-57
2024/03/17 06:48:30;;;;;;;;;;;2.50;99.90;;;;;;5036735;28;19942;-57
2024/03/17 06:50:55;;;;;;;;;;;2.50;99.90;;;;;;5029002;28;19928;-54
2024/03/17 06:53:21;;;;;;;;;;;2.70;99.90;;;;;;5027676;28;20398;-56
2024/03/17 06:55:57;;;;;;;;;;;2.80;99.90;;;;;;5035091;28;20003;-56
2024/03/17 06:58:23;;;;;;;;;;;2.90;99.90;;;;;;5034094;28;20347;-57
2024/03/17 07:00:55;;;;;;;;;;;2.90;99.90;;;;;;5035314;28;19929;-58
2024/03/17 07:03:22;;;;;;;;;;;3.10;99.90;;;;;;5033379;28;19921;-59
2024/03/17 07:05:51;;;;;;;;;;;3.20;99.90;;;;;;5027451;28;19961;-57
2024/03/17 07:08:19;;;;;;;;;;;3.30;99.90;;;;;;5028414;28;19921;-56
2024/03/17 07:10:54;;;;;;;;;;;3.40;99.90;;;;;;5039892;28;19934;-58
2024/03/17 07:13:19;;;;;;;;;;;3.50;99.90;;;;;;5040667;28;19919;-56
2024/03/17 07:15:47;;;;;;;;;;;3.70;99.90;;;;;;5036848;28;19939;-57
2024/03/17 07:18:13;;;;;;;;;;;3.80;99.90;;;;;;5028514;28;19925;-58
2024/03/17 07:20:39;;;;;;;;;;;4.00;99.90;;;;;;5032140;28;19926;-58
2024/03/17 07:23:04;;;;;;;;;;;4.30;99.90;;;;;;5032451;28;20265;-60
2024/03/17 07:25:30;;;;;;;;;;;4.40;99.90;;;;;;5031927;28;19909;-56
2024/03/17 07:27:55;;;;;;;;;;;4.70;99.90;;;;;;5013832;28;19924;-55
2024/03/17 07:30:22;;;;;;;;;;;4.90;99.90;;;;;;5047699;28;19944;-58
2024/03/17 07:32:47;;;;;;;;;;;5.00;99.90;;;;;;5040347;28;20408;-61
2024/03/17 07:35:13;;;;;;;;;;;5.30;99.90;;;;;;5038973;28;20029;-56
2024/03/17 07:37:39;;;;;;;;;;;5.30;99.90;;;;;;5032777;28;20123;-60
2024/03/17 07:40:06;;;;;;;;;;;5.20;99.90;;;;;;5031814;28;20052;-55
2024/03/17 07:42:32;;;;;;;;;;;5.40;99.90;;;;;;5032065;28;19927;-57
2024/03/17 07:44:58;;;;;;;;;;;5.50;99.90;;;;;;5036690;28;19956;-57
2024/03/17 07:47:23;;;;;;;;;;;5.80;99.90;;;;;;5034630;28;19950;-60
2024/03/17 07:49:49;;;;;;;;;;;6.10;99.90;;;;;;5031116;28;20070;-57
2024/03/17 07:52:15;;;;;;;;;;;6.40;99.90;;;;;;5040308;28;19951;-61
2024/03/17 07:54:40;;;;;;;;;;;6.60;99.90;;;;;;5034088;28;19963;-61
2024/03/17 07:57:06;;;;;;;;;;;6.90;99.90;;;;;;5044942;28;19952;-60
2024/03/17 07:59:31;;;;;;;;;;;7.10;99.90;;;;;;5030993;28;19917;-61
2024/03/17 08:01:57;;;;;;;;;;;7.40;99.90;;;;;;5044763;28;19908;-60
2024/03/17 08:04:23;;;;;;;;;;;7.60;99.90;;;;;;5039801;28;19921;-60
2024/03/17 08:06:48;;;;;;;;;;;8.00;99.90;;;;;;5047627;28;20317;-62
2024/03/17 08:09:16;;;;;;;;;;;8.20;99.90;;;;;;5046145;28;19913;-60
2024/03/17 08:11:46;;;;;;;;;;;8.60;99.90;;;;;;5040161;28;19913;-62
2024/03/17 08:14:12;;;;;;;;;;;8.70;99.90;;;;;;5031368;28;20199;-62
2024/03/17 08:16:37;;;;;;;;;;;9.00;99.90;;;;;;5041787;28;20069;-62
2024/03/17 08:19:03;;;;;;;;;;;9.20;99.90;;;;;;5036792;28;19920;-61
2024/03/17 08:21:29;;;;;;;;;;;9.40;99.90;;;;;;5032311;28;20009;-61
2024/03/17 08:23:55;;;;;;;;;;;9.50;99.90;;;;;;5038520;28;19909;-61
2024/03/17 08:26:20;;;;;;;;;;;9.40;99.90;;;;;;5039114;28;19919;-60
2024/03/17 08:28:46;;;;;;;;;;;9.80;99.90;;;;;;5038586;28;19916;-60
2024/03/17 08:31:12;;;;;;;;;;;10.00;99.90;;;;;;5036997;28;20003;-61
2024/03/17 08:33:38;;;;;;;;;;;10.30;99.90;;;;;;5040589;28;20273;-58
2024/03/17 08:36:07;;;;;;;;;;;10.60;99.90;;;;;;5036517;28;19919;-60
2024/03/17 08:38:33;;;;;;;;;;;10.90;99.90;;;;;;5050318;28;19913;-60
2024/03/17 08:41:03;;;;;;;;;;;11.20;99.90;;;;;;5037597;28;19912;-61
2024/03/17 08:43:28;;;;;;;;;;;11.40;99.90;;;;;;5030815;28;19913;-60
2024/03/17 08:45:55;;;;;;;;;;;11.80;99.90;;;;;;5030656;28;19923;-61
2024/03/17 08:48:20;;;;;;;;;;;11.60;99.90;;;;;;5037969;28;19905;-60
2024/03/17 08:50:53;;;;;;;;;;;11.90;99.90;;;;;;5038913;28;19912;-61
2024/03/17 08:53:19;;;;;;;;;;;12.10;99.90;;;;;;5030599;28;20430;-60
2024/03/17 08:55:44;;;;;;;;;;;12.50;99.90;;;;;;5038364;28;19909;-61
2024/03/17 08:58:10;;;;;;;;;;;12.70;99.90;;;;;;5036406;28;19908;-61
2024/03/17 09:00:36;;;;;;;;;;;12.90;99.90;;;;;;5040247;28;19938;-60
2024/03/17 09:03:02;;;;;;;;;;;12.90;99.90;;;;;;5032205;28;19963;-60
2024/03/17 09:05:27;;;;;;;;;;;12.80;99.90;;;;;;5030302;28;19909;-59
2024/03/17 09:07:53;;;;;;;;;;;12.90;99.90;;;;;;5028494;28;19913;-60
2024/03/17 09:10:18;;;;;;;;;;;13.30;99.90;;;;;;5029994;28;19917;-60
2024/03/17 09:12:47;;;;;;;;;;;13.80;99.90;;;;;;5049518;28;19919;-60
2024/03/17 09:15:12;;;;;;;;;;;13.90;99.90;;;;;;5034663;28;20385;-61
2024/03/17 09:17:39;;;;;;;;;;;14.10;99.90;;;;;;5038046;28;19913;-61
2024/03/17 09:20:05;;;;;;;;;;;14.50;99.90;;;;;;5043549;28;19990;-61
2024/03/17 09:22:30;;;;;;;;;;;15.10;99.90;;;;;;5032230;28;20428;-59
2024/03/17 09:24:56;;;;;;;;;;;15.60;99.90;;;;;;5030130;28;19913;-61
2024/03/17 09:27:22;;;;;;;;;;;15.90;99.90;;;;;;5040004;28;20312;-60
2024/03/17 09:29:48;;;;;;;;;;;15.80;99.90;;;;;;5037097;28;20321;-61
2024/03/17 09:32:17;;;;;;;;;;;15.90;99.90;;;;;;5029832;28;19912;-61
2024/03/17 09:34:48;;;;;;;;;;;15.90;99.90;;;;;;5037880;28;19921;-61
2024/03/17 09:37:13;;;;;;;;;;;15.10;99.90;;;;;;5029599;28;20273;-60
2024/03/17 09:39:39;;;;;;;;;;;14.80;99.90;;;;;;5030922;28;19919;-59
2024/03/17 09:42:05;;;;;;;;;;;14.30;99.90;;;;;;5035528;28;19909;-60
2024/03/17 09:44:32;;;;;;;;;;;14.00;99.90;;;;;;5038564;28;19923;-61
2024/03/17 09:46:59;;;;;;;;;;;13.90;99.90;;;;;;5036015;28;20302;-61
2024/03/17 09:49:25;;;;;;;;;;;14.30;99.90;;;;;;5029150;28;19913;-62
2024/03/17 09:51:53;;;;;;;;;;;14.70;99.90;;;;;;5037494;28;19909;-59
2024/03/17 09:54:19;;;;;;;;;;;14.90;99.90;;;;;;5045083;28;19908;-60
2024/03/17 09:56:44;;;;;;;;;;;15.00;99.90;;;;;;5037593;28;19971;-59
2024/03/17 09:59:10;;;;;;;;;;;15.00;99.90;;;;;;5028724;28;19935;-58
2024/03/17 10:01:35;;;;;;;;;;;15.30;99.90;;;;;;5039193;28;19913;-55
2024/03/17 10:04:04;;;;;;;;;;;15.20;99.90;;;;;;5042392;28;20330;-57
2024/03/17 10:06:30;;;;;;;;;;;15.00;99.90;;;;;;5028867;28;19912;-55
2024/03/17 10:09:09;;;;;;;;;;;14.80;99.90;;;;;;5036898;28;20015;-58
2024/03/17 10:11:36;;;;;;;;;;;15.00;99.90;;;;;;5029053;28;20307;-58
2024/03/17 10:14:05;;;;;;;;;;;15.30;99.90;;;;;;5029550;28;19963;-59
2024/03/17 10:16:31;;;;;;;;;;;15.40;99.90;;;;;;5037112;28;20218;-55
2024/03/17 10:19:10;;;;;;;;;;;15.20;99.90;;;;;;5041843;28;19956;-58
2024/03/17 10:21:36;;;;;;;;;;;14.50;99.90;;;;;;5048743;28;19920;-59
2024/03/17 10:24:08;;;;;;;;;;;14.00;99.90;;;;;;5035159;28;19932;-58
2024/03/17 10:26:38;;;;;;;;;;;14.30;99.90;;;;;;5028823;28;19909;-59
2024/03/17 10:29:05;;;;;;;;;;;14.50;99.90;;;;;;5028379;28;20324;-59
2024/03/17 10:31:31;;;;;;;;;;;15.20;99.90;;;;;;5028645;28;19915;-57
2024/03/17 10:34:02;;;;;;;;;;;15.80;99.90;;;;;;5028990;28;19913;-59
2024/03/17 10:36:27;;;;;;;;;;;16.60;99.90;;;;;;5029410;28;19909;-60
2024/03/17 10:38:54;;;;;;;;;;;17.20;99.90;;;;;;5042369;28;20300;-59
2024/03/17 10:41:21;;;;;;;;;;;17.70;99.90;;;;;;5027743;28;20392;-60
2024/03/17 10:43:47;;;;;;;;;;;17.60;99.90;;;;;;5037263;28;19931;-60
2024/03/17 10:46:14;;;;;;;;;;;16.90;99.90;;;;;;5043307;28;19912;-59
2024/03/17 10:48:41;;;;;;;;;;;16.40;99.90;;;;;;5037678;28;19923;-60
2024/03/17 10:51:14;;;;;;;;;;;15.90;99.90;;;;;;5043446;28;20350;-60
2024/03/17 10:53:40;;;;;;;;;;;15.30;99.90;;;;;;5033409;28;20218;-60
2024/03/17 10:56:09;;;;;;;;;;;15.20;99.90;;;;;;5052684;28;20414;-60
2024/03/17 10:58:48;;;;;;;;;;;14.10;99.90;;;;;;5035032;28;19944;-60
2024/03/17 11:01:14;;;;;;;;;;;14.30;99.90;;;;;;5037056;28;19913;-60
2024/03/17 11:03:40;;;;;;;;;;;14.60;99.90;;;;;;5044218;28;19909;-59
2024/03/17 11:06:06;;;;;;;;;;;14.90;99.90;;;;;;5043894;28;19904;-60
2024/03/17 11:08:32;;;;;;;;;;;15.20;99.90;;;;;;5041759;28;19914;-60
2024/03/17 11:10:58;;;;;;;;;;;15.50;99.90;;;;;;5040466;28;19905;-60
2024/03/17 11:13:25;;;;;;;;;;;15.50;99.90;;;;;;5032366;28;20266;-59
2024/03/17 11:15:53;;;;;;;;;;;15.60;99.90;;;;;;5032256;28;19963;-59
2024/03/17 11:18:21;;;;;;;;;;;15.80;99.90;;;;;;5031393;28;20627;-60
2024/03/17 11:21:15;;;;;;;;;;;15.70;99.90;;;;;;5035179;28;19960;-60
2024/03/17 11:23:41;;;;;;;;;;;15.50;99.90;;;;;;5035691;28;19913;-59
2024/03/17 11:26:07;;;;;;;;;;;15.20;99.90;;;;;;5043533;28;19913;-60
2024/03/17 11:28:44;;;;;;;;;;;14.70;99.90;;;;;;5041716;28;19919;-60
2024/03/17 11:31:28;;;;;;;;;;;14.70;99.90;;;;;;5031978;28;19905;-59
2024/03/17 11:33:55;;;;;;;;;;;14.40;99.90;;;;;;5044334;28;20301;-59
2024/03/17 11:36:21;;;;;;;;;;;14.40;99.90;;;;;;5043417;28;19922;-60
2024/03/17 11:39:03;;;;;;;;;;;14.70;99.90;;;;;;5031692;28;19909;-60
2024/03/17 11:41:47;;;;;;;;;;;14.50;99.90;;;;;;5031380;28;20266;-60
2024/03/17 11:44:24;;;;;;;;;;;14.50;99.90;;;;;;5038124;28;20296;-59
2024/03/17 11:47:06;;;;;;;;;;;14.80;99.90;;;;;;5041942;28;19909;-60
2024/03/17 11:49:39;;;;;;;;;;;14.80;99.90;;;;;;5042543;28;19913;-59
2024/03/17 11:52:04;;;;;;;;;;;14.80;99.90;;;;;;5046366;28;19909;-62
2024/03/17 11:54:30;;;;;;;;;;;15.20;99.90;;;;;;5034496;28;19909;-62
2024/03/17 11:57:00;;;;;;;;;;;15.30;99.90;;;;;;5032945;28;19934;-62
2024/03/17 11:59:26;;;;;;;;;;;15.00;99.90;;;;;;5042242;28;20289;-59
2024/03/17 12:01:52;;;;;;;;;;;14.60;99.90;;;;;;5013376;28;20566;-59
2024/03/17 12:04:19;;;;;;;;;;;14.50;99.90;;;;;;5038142;28;19916;-57
2024/03/17 12:06:46;;;;;;;;;;;14.70;99.90;;;;;;5031178;28;20413;-59
2024/03/17 12:09:18;;;;;;;;;;;14.70;99.90;;;;;;5046230;28;19913;-60
2024/03/17 12:11:44;;;;;;;;;;;15.00;99.90;;;;;;5033230;28;19916;-57
2024/03/17 12:14:14;;;;;;;;;;;14.50;99.90;;;;;;5041279;28;20372;-60
2024/03/17 12:16:46;;;;;;;;;;;14.30;99.90;;;;;;5031835;28;20365;-59
2024/03/17 12:19:12;;;;;;;;;;;14.40;99.90;;;;;;5032391;28;20357;-59
2024/03/17 12:21:40;;;;;;;;;;;14.60;99.90;;;;;;5041336;28;19913;-57
2024/03/17 12:24:13;;;;;;;;;;;14.50;99.90;;;;;;5031135;28;20011;-61
2024/03/17 12:26:39;;;;;;;;;;;14.60;99.90;;;;;;5029282;28;19931;-59
2024/03/17 12:29:04;;;;;;;;;;;14.80;99.90;;;;;;5028713;28;20495;-60
2024/03/17 12:31:30;;;;;;;;;;;15.00;99.90;;;;;;5029324;28;19909;-60
2024/03/17 12:33:55;;;;;;;;;;;14.90;99.90;;;;;;5029643;28;19953;-58
2024/03/17 12:36:21;;;;;;;;;;;15.00;99.90;;;;;;5037068;28;20365;-58
2024/03/17 12:38:46;;;;;;;;;;;15.30;99.90;;;;;;5029095;28;19909;-60
2024/03/17 12:41:18;;;;;;;;;;;15.10;99.90;;;;;;5029834;28;19913;-59
2024/03/17 12:43:49;;;;;;;;;;;14.90;99.90;;;;;;5030841;28;19952;-60
2024/03/17 12:46:15;;;;;;;;;;;14.90;99.90;;;;;;5030907;28;19909;-58
2024/03/17 12:48:40;;;;;;;;;;;15.20;99.90;;;;;;5030062;28;19913;-60
2024/03/17 12:51:13;;;;;;;;;;;15.10;99.90;;;;;;5036758;28;19908;-60
2024/03/17 12:53:38;;;;;;;;;;;15.10;99.90;;;;;;5032646;28;19967;-59
2024/03/17 13:01:32;;;;;;;;;;;15.20;99.90;;;;;;5033291;28;19940;-60
2024/03/17 13:04:05;;;;;;;;;;;15.10;99.90;;;;;;5042992;28;19908;-61
2024/03/17 13:06:30;;;;;;;;;;;15.20;99.90;;;;;;5044405;28;19924;-60
2024/03/17 13:08:56;;;;;;;;;;;15.30;99.90;;;;;;5036418;28;19920;-61
2024/03/17 13:11:21;;;;;;;;;;;15.50;99.90;;;;;;5057619;28;20365;-60
2024/03/17 13:13:47;;;;;;;;;;;15.40;99.90;;;;;;5055447;28;19910;-62
2024/03/17 13:16:13;;;;;;;;;;;15.70;99.90;;;;;;5051156;28;19917;-61
2024/03/17 13:18:38;;;;;;;;;;;15.90;99.90;;;;;;5057361;28;20016;-60
2024/03/17 13:21:04;;;;;;;;;;;15.70;99.90;;;;;;5056754;28;20306;-61
2024/03/17 13:23:29;;;;;;;;;;;15.50;99.90;;;;;;5053716;28;19919;-59
2024/03/17 13:25:55;;;;;;;;;;;15.70;99.90;;;;;;5052890;28;20388;-61
2024/03/17 13:28:20;;;;;;;;;;;15.70;99.90;;;;;;5050171;28;19958;-56
2024/03/17 13:30:47;;;;;;;;;;;15.30;99.90;;;;;;5052747;28;19977;-60
2024/03/17 13:33:13;;;;;;;;;;;15.30;99.90;;;;;;5050794;28;19921;-60
2024/03/17 13:35:39;;;;;;;;;;;15.40;99.90;;;;;;5031310;28;20331;-57
2024/03/17 13:38:08;;;;;;;;;;;15.40;99.90;;;;;;5034564;28;19947;-58
2024/03/17 13:40:34;;;;;;;;;;;15.80;99.90;;;;;;5041047;28;19928;-55
2024/03/17 13:43:00;;;;;;;;;;;16.20;99.90;;;;;;5036827;28;19920;-55
2024/03/17 13:45:29;;;;;;;;;;;16.50;99.90;;;;;;5046237;28;19924;-56
2024/03/17 13:47:58;;;;;;;;;;;16.70;99.90;;;;;;5036745;28;19909;-58
2024/03/17 13:50:24;;;;;;;;;;;16.70;99.90;;;;;;5029637;28;19920;-54
2024/03/17 13:52:50;;;;;;;;;;;16.80;99.90;;;;;;5032633;28;19909;-54
2024/03/17 13:55:16;;;;;;;;;;;16.80;99.90;;;;;;5034457;28;20316;-55
2024/03/17 13:57:43;;;;;;;;;;;16.90;99.90;;;;;;5037489;28;20008;-54
2024/03/17 14:00:09;;;;;;;;;;;16.60;99.90;;;;;;5037318;28;19905;-56
2024/03/17 14:02:35;;;;;;;;;;;16.40;99.90;;;;;;5045427;28;19912;-54
2024/03/17 14:05:01;;;;;;;;;;;16.20;99.90;;;;;;5044241;28;19909;-58
2024/03/17 14:07:27;;;;;;;;;;;16.10;99.90;;;;;;5037234;28;19916;-59
2024/03/17 14:09:52;;;;;;;;;;;16.00;99.90;;;;;;5036733;28;20377;-54
2024/03/17 14:12:18;;;;;;;;;;;16.10;99.90;;;;;;5036155;28;20383;-57
2024/03/17 14:14:43;;;;;;;;;;;16.20;99.90;;;;;;5029989;28;19909;-56
2024/03/17 14:17:09;;;;;;;;;;;16.10;99.90;;;;;;5042764;28;19905;-57
2024/03/17 14:19:35;;;;;;;;;;;16.10;99.90;;;;;;5031028;28;19963;-55
2024/03/17 14:22:01;;;;;;;;;;;16.30;99.90;;;;;;5037134;28;20420;-55
2024/03/17 14:24:26;;;;;;;;;;;16.40;99.90;;;;;;5037277;28;19916;-56
2024/03/17 14:26:52;;;;;;;;;;;16.40;99.90;;;;;;5040560;28;19917;-55